Time;durP1;ratioP1;P1;durP2;ratioP2;P2;SDS_P1;SDS_P2;PMS_P1;PMS_P2;Temp;Humidity;BMP_temperature;BMP_pressure;BME280_temperature;BME280_humidity;BME280_pressure;Samples;Min_cycle;Max_cycle;Signal;HPM_P1;HPM_P2
2022/10/01 00:02:55;;;;;;;109.05;21.17;;;;;;;14.69;96.26;100712.06;1721699;80;21212;-55
2022/10/01 00:06:13;;;;;;;108.97;22.95;;;;;;;14.70;96.24;100707.39;1722796;80;21241;-56
2022/10/01 00:09:21;;;;;;;89.75;20.68;;;;;;;14.71;96.33;100703.61;1721255;80;21208;-57
2022/10/01 00:12:28;;;;;;;80.40;20.32;;;;;;;14.73;96.41;100701.52;1670519;82;21244;-57
2022/10/01 00:15:34;;;;;;;107.67;21.35;;;;;;;14.75;96.44;100706.28;1680818;81;21229;-57
2022/10/01 00:18:44;;;;;;;88.58;20.40;;;;;;;14.76;96.42;100705.26;1669728;81;21235;-56
2022/10/01 00:21:50;;;;;;;63.45;19.82;;;;;;;14.76;96.41;100703.88;1677447;81;21293;-56
2022/10/01 00:24:59;;;;;;;44.58;18.60;;;;;;;14.76;96.37;100707.47;1672519;80;21283;-56
2022/10/01 00:28:06;;;;;;;53.40;18.23;;;;;;;14.76;96.33;100705.26;1658677;82;21275;-57
2022/10/01 00:31:14;;;;;;;38.40;19.57;;;;;;;14.75;96.35;100706.28;1673592;81;21275;-57
2022/10/01 00:34:21;;;;;;;38.90;19.27;;;;;;;14.74;96.34;100707.34;1709602;80;21595;-57
2022/10/01 00:37:27;;;;;;;45.40;17.42;;;;;;;14.73;96.33;100709.78;1729981;80;21284;-56
2022/10/01 00:40:32;;;;;;;37.75;17.80;;;;;;;14.73;96.34;100722.19;1718945;81;21260;-55
2022/10/01 00:43:47;;;;;;;47.62;18.02;;;;;;;14.72;96.29;100721.84;1721455;80;21313;-56
2022/10/01 00:46:53;;;;;;;34.73;17.30;;;;;;;14.69;96.24;100720.84;1697399;81;21217;-56
2022/10/01 00:50:07;;;;;;;29.02;17.48;;;;;;;14.68;96.16;100719.16;1719116;81;21200;-56
2022/10/01 00:53:16;;;;;;;32.73;16.70;;;;;;;14.66;96.06;100711.59;1719293;79;21217;-57
2022/10/01 00:56:23;;;;;;;36.93;16.60;;;;;;;14.65;96.07;100723.67;1703674;80;21214;-56
2022/10/01 00:59:29;;;;;;;19.07;16.80;;;;;;;14.65;96.03;100720.92;1718045;81;21256;-55
2022/10/01 01:02:36;;;;;;;23.40;16.70;;;;;;;14.67;96.09;100722.94;1716360;80;21665;-56
2022/10/01 01:05:41;;;;;;;26.02;17.82;;;;;;;14.69;96.12;100707.06;1722044;80;21216;-57
2022/10/01 01:08:52;;;;;;;21.75;17.23;;;;;;;14.68;96.00;100706.20;1730027;81;21509;-57
2022/10/01 01:12:19;;;;;;;20.80;18.27;;;;;;;14.70;96.10;100706.88;1741559;81;21236;-56
2022/10/01 01:15:47;;;;;;;19.92;17.87;;;;;;;14.71;96.20;100704.98;1697392;81;21261;-56
2022/10/01 01:19:09;;;;;;;22.95;19.23;;;;;;;14.76;96.25;100708.02;1731453;79;21298;-57
2022/10/01 01:22:15;;;;;;;18.98;17.07;;;;;;;14.76;96.25;100704.71;1713105;80;21741;-57
2022/10/01 01:25:27;;;;;;;19.20;17.30;;;;;;;14.79;96.32;100709.00;1671325;82;21217;-57
2022/10/01 01:28:45;;;;;;;21.85;18.42;;;;;;;14.79;96.37;100711.75;1711290;80;21268;-57
2022/10/01 01:31:52;;;;;;;19.37;17.30;;;;;;;14.81;96.39;100711.02;1714798;80;21248;-57
2022/10/01 01:34:59;;;;;;;20.70;17.85;;;;;;;14.82;96.42;100709.47;1732060;80;21212;-57
2022/10/01 01:38:14;;;;;;;23.80;18.57;;;;;;;14.84;96.38;100712.03;1723199;80;21307;-57
2022/10/01 01:41:20;;;;;;;20.10;17.92;;;;;;;14.85;96.35;100712.34;1731227;80;22108;-56
2022/10/01 01:44:32;;;;;;;20.52;17.82;;;;;;;14.85;96.35;100702.18;1709675;80;21268;-56
2022/10/01 01:47:38;;;;;;;22.85;17.23;;;;;;;14.87;96.31;100701.98;1741967;81;21287;-56
2022/10/01 01:50:55;;;;;;;21.12;17.07;;;;;;;14.88;96.33;100707.81;1709886;81;21723;-57
2022/10/01 01:54:01;;;;;;;25.35;18.80;;;;;;;14.89;96.41;100710.89;1740416;80;21200;-56
2022/10/01 01:57:06;;;;;;;26.00;19.73;;;;;;;14.92;96.45;100719.63;1720787;81;21259;-57
2022/10/01 02:00:16;;;;;;;28.35;18.85;;;;;;;14.94;96.42;100720.81;1732287;81;21417;-57
2022/10/01 02:03:23;;;;;;;24.15;18.98;;;;;;;14.95;96.36;100715.64;1704277;82;21722;-57
2022/10/01 02:06:44;;;;;;;27.55;19.95;;;;;;;14.94;96.32;100722.19;1713286;80;21229;-57
2022/10/01 02:10:16;;;;;;;29.10;19.62;;;;;;;14.95;96.31;100721.16;1722168;80;21228;-57
2022/10/01 02:14:08;;;;;;;27.50;18.70;;;;;;;14.96;96.36;100723.72;1729216;80;21279;-57
2022/10/01 02:17:25;;;;;;;40.10;19.40;;;;;;;14.97;96.38;100724.55;1724058;80;21332;-56
2022/10/01 02:20:46;;;;;;;40.28;19.10;;;;;;;14.96;96.29;100727.85;1734103;80;21228;-57
2022/10/01 02:24:32;;;;;;;33.08;18.30;;;;;;;14.95;96.16;100728.05;1727946;81;21212;-57
2022/10/01 02:28:02;;;;;;;38.25;18.37;;;;;;;14.93;96.13;100727.39;1717854;80;21283;-57
2022/10/01 02:31:08;;;;;;;52.00;17.70;;;;;;;14.90;96.12;100727.78;1708809;82;21272;-57
2022/10/01 02:34:18;;;;;;;34.08;18.00;;;;;;;14.84;96.01;100725.81;1675628;81;21339;-56
2022/10/01 02:37:27;;;;;;;27.67;17.48;;;;;;;14.79;95.96;100725.53;1738353;80;21223;-57
2022/10/01 02:40:34;;;;;;;30.30;17.25;;;;;;;14.76;95.90;100730.89;1710095;81;21240;-58
2022/10/01 02:43:50;;;;;;;25.90;17.40;;;;;;;14.74;95.86;100729.39;1730151;80;21221;-58
2022/10/01 02:47:04;;;;;;;37.33;17.40;;;;;;;14.72;95.79;100737.86;1690707;81;21232;-58
2022/10/01 02:50:11;;;;;;;36.13;16.90;;;;;;;14.70;95.72;100734.44;1713168;81;21264;-57
2022/10/01 02:53:22;;;;;;;40.03;16.77;;;;;;;14.68;95.72;100728.25;1722357;81;21774;-57
2022/10/01 02:59:37;;;;;;;38.48;15.65;;;;;;;14.65;95.71;100727.81;1677476;81;21229;-57
2022/10/01 03:02:43;;;;;;;57.90;16.57;;;;;;;14.64;95.68;100731.59;1726731;81;21212;-57
2022/10/01 03:05:49;;;;;;;44.95;15.58;;;;;;;14.62;95.73;100735.06;1724033;80;21220;-57
2022/10/01 03:08:56;;;;;;;53.52;14.75;;;;;;;14.61;95.71;100747.14;1662259;82;21275;-58
2022/10/01 03:12:02;;;;;;;45.48;14.15;;;;;;;14.57;95.66;100741.70;1718543;80;21268;-57
2022/10/01 03:15:08;;;;;;;56.28;14.78;;;;;;;14.55;95.62;100750.67;1717284;80;21249;-57
2022/10/01 03:18:14;;;;;;;37.90;14.47;;;;;;;14.51;95.49;100750.19;1727053;81;21216;-56
2022/10/01 03:21:20;;;;;;;38.05;14.13;;;;;;;14.47;95.42;100739.75;1718050;80;21248;-57
2022/10/01 03:24:26;;;;;;;41.90;14.15;;;;;;;14.43;95.28;100754.97;1726982;81;21279;-57
2022/10/01 03:27:31;;;;;;;31.20;13.72;;;;;;;14.41;95.40;100755.68;1720665;81;21228;-57
2022/10/01 03:30:38;;;;;;;23.52;14.45;;;;;;;14.39;95.47;100751.73;1721291;80;21362;-57
2022/10/01 03:33:44;;;;;;;24.12;14.78;;;;;;;14.37;95.44;100749.69;1690164;80;21208;-56
2022/10/01 03:36:51;;;;;;;30.10;15.08;;;;;;;14.34;95.43;100750.08;1733221;80;21555;-58
2022/10/01 03:39:58;;;;;;;36.80;14.40;;;;;;;14.31;95.39;100744.95;1697709;80;21221;-57
2022/10/01 03:43:03;;;;;;;22.75;14.03;;;;;;;14.30;95.56;100739.09;1731270;80;21647;-58
2022/10/01 03:46:10;;;;;;;28.32;13.98;;;;;;;14.31;95.70;100731.70;1733786;80;21288;-57
2022/10/01 03:49:15;;;;;;;30.57;14.18;;;;;;;14.30;95.76;100734.96;1722672;80;21275;-57
2022/10/01 03:52:22;;;;;;;36.20;14.03;;;;;;;14.27;95.63;100733.14;1717529;80;21232;-57
2022/10/01 03:55:30;;;;;;;49.33;12.85;;;;;;;14.25;95.51;100735.22;1683353;80;21279;-57
2022/10/01 03:58:37;;;;;;;52.60;12.88;;;;;;;14.22;95.49;100746.05;1691778;82;21769;-58
2022/10/01 04:01:45;;;;;;;45.17;11.97;;;;;;;14.21;95.47;100743.48;1716043;81;21872;-58
2022/10/01 04:04:50;;;;;;;81.53;13.58;;;;;;;14.22;95.53;100739.70;1648255;80;21407;-57
2022/10/01 04:07:56;;;;;;;92.78;12.88;;;;;;;14.22;95.55;100742.45;1668756;80;21286;-58
2022/10/01 04:11:02;;;;;;;88.30;12.63;;;;;;;14.21;95.47;100742.11;1664099;82;21293;-58
2022/10/01 04:14:07;;;;;;;76.07;13.35;;;;;;;14.20;95.34;100750.05;1671921;82;21296;-57
2022/10/01 04:17:15;;;;;;;80.97;12.53;;;;;;;14.19;95.31;100746.97;1659373;81;21854;-57
2022/10/01 04:20:20;;;;;;;56.35;12.35;;;;;;;14.18;95.27;100748.00;1719049;80;21465;-58
2022/10/01 04:23:25;;;;;;;71.97;12.45;;;;;;;14.19;95.28;100755.23;1733934;81;21272;-58
2022/10/01 04:26:31;;;;;;;83.67;12.18;;;;;;;14.20;95.30;100751.42;1727416;80;21348;-58
2022/10/01 04:29:37;;;;;;;53.28;12.30;;;;;;;14.21;95.33;100744.86;1715609;81;21275;-57
2022/10/01 04:32:45;;;;;;;74.45;12.05;;;;;;;14.23;95.31;100750.53;1681534;81;21228;-58
2022/10/01 04:35:52;;;;;;;68.97;12.20;;;;;;;14.24;95.34;100756.90;1709777;80;21219;-58
2022/10/01 04:38:59;;;;;;;43.50;12.13;;;;;;;14.26;95.33;100759.81;1685123;81;21232;-57
2022/10/01 04:42:04;;;;;;;49.40;12.25;;;;;;;14.27;95.31;100749.66;1657498;82;21227;-57
2022/10/01 04:45:09;;;;;;;40.30;11.93;;;;;;;14.29;95.34;100753.92;1679570;80;21236;-57
2022/10/01 04:48:16;;;;;;;42.85;12.37;;;;;;;14.30;95.33;100745.15;1673687;82;21236;-57
2022/10/01 04:51:22;;;;;;;21.17;11.83;;;;;;;14.30;95.32;100746.52;1674085;82;21335;-57
2022/10/01 04:54:28;;;;;;;23.95;11.73;;;;;;;14.32;95.37;100763.17;1670716;82;21304;-57
2022/10/01 04:57:34;;;;;;;22.42;12.05;;;;;;;14.36;95.44;100760.91;1661003;83;21213;-57
2022/10/01 05:00:40;;;;;;;15.58;12.15;;;;;;;14.37;95.48;100758.47;1678280;82;21231;-57
2022/10/01 05:03:46;;;;;;;14.25;12.78;;;;;;;14.35;95.45;100761.96;1699210;83;21256;-57
2022/10/01 05:06:52;;;;;;;14.70;13.18;;;;;;;14.37;95.50;100760.71;1695285;81;21831;-57
2022/10/01 05:09:59;;;;;;;17.20;12.78;;;;;;;14.38;95.56;100764.33;1707368;82;21378;-57
2022/10/01 05:13:04;;;;;;;13.70;12.28;;;;;;;14.41;95.67;100762.56;1665295;81;21220;-58
2022/10/01 05:16:10;;;;;;;15.28;13.18;;;;;;;14.45;95.75;100762.50;1660877;82;21242;-57
2022/10/01 05:19:16;;;;;;;16.32;13.68;;;;;;;14.48;95.79;100767.11;1709008;80;21247;-57
2022/10/01 05:22:24;;;;;;;21.70;15.70;;;;;;;14.52;95.88;100756.05;1700725;81;21244;-58
2022/10/01 05:25:30;;;;;;;16.15;14.35;;;;;;;14.59;96.07;100757.48;1721343;80;21256;-57
2022/10/01 05:28:37;;;;;;;19.52;14.83;;;;;;;14.66;96.21;100747.42;1712560;81;21231;-56
2022/10/01 05:31:43;;;;;;;18.40;15.78;;;;;;;14.75;96.35;100743.49;1693977;81;21218;-57
2022/10/01 05:34:52;;;;;;;17.07;15.30;;;;;;;14.83;96.49;100744.75;1713905;81;21374;-57
2022/10/01 05:38:03;;;;;;;17.82;15.23;;;;;;;14.95;96.62;100745.97;1696905;80;21192;-57
2022/10/01 05:41:09;;;;;;;21.07;15.85;;;;;;;15.08;96.79;100746.09;1672485;80;21252;-57
2022/10/01 05:44:15;;;;;;;22.22;16.10;;;;;;;15.22;97.02;100730.03;1711788;81;21295;-57
2022/10/01 05:47:23;;;;;;;20.90;16.45;;;;;;;15.36;97.20;100736.00;1685890;81;21256;-57
2022/10/01 05:50:34;;;;;;;21.70;16.10;;;;;;;15.49;97.35;100746.33;1690979;81;21248;-56
2022/10/01 05:53:41;;;;;;;19.25;16.40;;;;;;;15.62;97.51;100737.63;1653352;82;21328;-55
2022/10/01 05:56:47;;;;;;;20.77;17.85;;;;;;;15.76;97.69;100720.11;1711406;79;21355;-55
2022/10/01 05:59:56;;;;;;;21.42;17.42;;;;;;;15.92;97.80;100721.73;1715916;80;21303;-56
2022/10/01 06:03:04;;;;;;;24.72;16.97;;;;;;;16.07;97.92;100720.56;1700068;80;21253;-55
2022/10/01 06:06:10;;;;;;;21.80;17.05;;;;;;;16.23;97.96;100724.89;1642876;83;21809;-55
2022/10/01 06:09:17;;;;;;;21.00;16.67;;;;;;;16.35;97.99;100717.20;1689659;83;21272;-55
2022/10/01 06:12:24;;;;;;;21.23;16.97;;;;;;;16.48;98.01;100720.59;1671784;82;21248;-57
2022/10/01 06:15:30;;;;;;;20.50;16.85;;;;;;;16.61;97.99;100715.64;1735426;80;21216;-56
2022/10/01 06:18:37;;;;;;;23.92;16.23;;;;;;;16.71;97.99;100722.51;1734179;80;21224;-57
2022/10/01 06:21:42;;;;;;;21.57;16.23;;;;;;;16.84;98.03;100727.23;1736775;80;21232;-57
2022/10/01 06:24:50;;;;;;;20.30;15.98;;;;;;;16.97;98.11;100724.48;1736057;80;21215;-56
2022/10/01 06:28:04;;;;;;;23.10;17.10;;;;;;;17.10;98.19;100736.97;1711204;80;21270;-56
2022/10/01 06:31:09;;;;;;;22.73;15.93;;;;;;;17.24;98.26;100738.69;1687463;81;21335;-55
2022/10/01 06:34:14;;;;;;;18.75;16.30;;;;;;;17.37;98.24;100727.65;1698556;82;21292;-54
2022/10/01 06:37:20;;;;;;;16.93;14.95;;;;;;;17.46;98.22;100725.88;1706055;81;21429;-55
2022/10/01 06:40:28;;;;;;;16.73;14.47;;;;;;;17.58;98.22;100728.87;1687227;80;21264;-55
2022/10/01 06:43:36;;;;;;;17.48;15.38;;;;;;;17.67;98.14;100728.97;1667692;81;21354;-55
2022/10/01 06:46:45;;;;;;;17.87;13.90;;;;;;;17.78;98.16;100729.71;1673557;81;21276;-55
2022/10/01 06:49:51;;;;;;;21.75;14.68;;;;;;;17.93;98.14;100737.80;1691915;80;21243;-55
2022/10/01 06:52:58;;;;;;;18.80;14.23;;;;;;;18.01;98.06;100728.75;1697012;80;21244;-56
2022/10/01 09:06:19;;;;;;;10.40;8.48;;;;;;;20.71;99.89;100667.17;1821415;79;28784;-57
2022/10/01 09:12:17;;;;;;;11.15;8.88;;;;;;;20.93;99.49;100668.92;1870732;76;28034;-57
2022/10/01 09:15:31;;;;;;;16.93;9.48;;;;;;;20.97;99.43;100672.41;1810679;78;21196;-57
2022/10/01 09:18:57;;;;;;;12.63;8.05;;;;;;;21.09;99.38;100658.55;1772753;79;21402;-57
2022/10/01 09:22:05;;;;;;;14.10;7.80;;;;;;;21.21;99.43;100666.38;1775597;80;21200;-57
2022/10/01 09:25:32;;;;;;;14.78;9.25;;;;;;;21.33;99.41;100669.49;1759491;80;21210;-56
2022/10/01 09:28:44;;;;;;;13.62;8.58;;;;;;;21.41;99.35;100667.75;1779348;79;21729;-57
2022/10/01 09:31:53;;;;;;;13.80;8.73;;;;;;;21.50;99.25;100664.91;1747760;81;21205;-57
2022/10/01 09:35:04;;;;;;;14.98;9.15;;;;;;;21.55;99.06;100661.44;1738970;81;21256;-57
2022/10/01 09:38:31;;;;;;;10.32;8.63;;;;;;;21.56;98.79;100656.16;1706082;82;21476;-57
2022/10/01 09:41:37;;;;;;;11.95;8.68;;;;;;;21.57;98.63;100652.27;1714131;82;21642;-58
2022/10/01 09:44:46;;;;;;;12.00;8.08;;;;;;;21.58;98.68;100653.42;1715685;82;21232;-58
2022/10/01 09:47:56;;;;;;;11.53;7.95;;;;;;;21.64;98.77;100646.91;1733752;82;21224;-58
2022/10/01 09:51:10;;;;;;;10.43;6.72;;;;;;;21.72;98.81;100644.30;1804497;79;21350;-58
2022/10/01 09:54:49;;;;;;;11.35;7.30;;;;;;;21.81;98.93;100646.52;1785030;78;21217;-58
2022/10/01 09:58:21;;;;;;;14.20;7.03;;;;;;;21.93;98.98;100651.53;1800725;79;21549;-58
2022/10/01 10:01:35;;;;;;;11.15;7.60;;;;;;;22.03;98.85;100651.77;1800686;79;21300;-58
2022/10/01 10:04:44;;;;;;;12.40;8.95;;;;;;;22.05;98.64;100644.55;1800714;78;21228;-58
2022/10/01 10:08:07;;;;;;;9.95;7.80;;;;;;;22.10;98.50;100641.32;1800195;79;21204;-57
2022/10/01 10:11:16;;;;;;;12.07;8.13;;;;;;;22.17;98.49;100643.98;1756766;79;21204;-58
2022/10/01 10:14:28;;;;;;;12.40;7.72;;;;;;;22.19;98.25;100644.59;1770218;80;21202;-55
2022/10/01 10:17:37;;;;;;;13.03;7.10;;;;;;;22.18;98.03;100645.12;1769876;80;21166;-58
2022/10/01 10:20:51;;;;;;;10.50;6.75;;;;;;;22.15;97.82;100643.41;1771610;80;21221;-60
2022/10/01 10:24:00;;;;;;;12.43;6.95;;;;;;;22.12;97.61;100641.93;1770635;80;21225;-58
2022/10/01 10:27:08;;;;;;;10.03;7.35;;;;;;;22.16;97.71;100634.79;1741745;82;21209;-56
2022/10/01 10:30:25;;;;;;;13.45;7.17;;;;;;;22.25;97.76;100633.84;1787868;78;21298;-56
2022/10/01 10:33:33;;;;;;;13.58;6.90;;;;;;;22.33;97.74;100632.60;1827216;78;21201;-58
2022/10/01 10:36:43;;;;;;;10.15;6.53;;;;;;;22.49;97.96;100636.87;1828015;78;21197;-57
2022/10/01 10:39:55;;;;;;;8.38;5.70;;;;;;;22.72;98.12;100633.20;1827973;78;21354;-57
2022/10/01 10:43:02;;;;;;;9.08;5.87;;;;;;;22.91;98.04;100635.52;1808177;78;21247;-57
2022/10/01 10:46:09;;;;;;;7.10;5.70;;;;;;;23.07;97.96;100633.31;1825458;78;21310;-57
2022/10/01 10:49:32;;;;;;;12.25;6.15;;;;;;;23.20;97.88;100629.36;1824427;78;21210;-56
2022/10/01 10:52:42;;;;;;;14.20;5.53;;;;;;;23.31;97.67;100622.34;1795319;79;21217;-57
2022/10/01 10:55:52;;;;;;;11.85;5.42;;;;;;;23.24;97.20;100616.59;1768925;80;21162;-57
2022/10/01 10:59:00;;;;;;;13.05;6.33;;;;;;;23.20;97.07;100629.36;1725164;80;21265;-56
2022/10/01 11:02:09;;;;;;;10.70;5.65;;;;;;;23.19;97.05;100623.48;1767069;80;21301;-59
2022/10/01 11:05:27;;;;;;;13.72;6.95;;;;;;;23.18;97.08;100628.21;1762922;80;21225;-58
2022/10/01 11:08:34;;;;;;;10.03;5.53;;;;;;;23.23;97.22;100627.48;1765454;81;21751;-57
2022/10/01 11:11:56;;;;;;;7.58;5.70;;;;;;;23.31;97.33;100622.88;1801903;79;21756;-58
2022/10/01 11:15:27;;;;;;;10.05;6.45;;;;;;;23.36;97.34;100618.23;1773808;80;21225;-57
2022/10/01 11:19:00;;;;;;;8.78;5.60;;;;;;;23.45;97.35;100615.88;1764556;81;21174;-58
2022/10/01 11:22:28;;;;;;;9.88;5.40;;;;;;;23.52;97.33;100606.76;1739956;81;21184;-57
2022/10/01 11:25:54;;;;;;;11.35;6.90;;;;;;;23.56;97.08;100613.55;1775587;79;21216;-59
2022/10/01 11:29:32;;;;;;;12.05;6.35;;;;;;;23.56;96.84;100609.36;1767888;79;21275;-59
2022/10/01 11:32:59;;;;;;;7.10;5.28;;;;;;;23.60;96.76;100613.32;1776966;80;21752;-59
2022/10/01 11:36:35;;;;;;;9.73;5.83;;;;;;;23.62;96.57;100608.33;1776554;80;21553;-59
2022/10/01 11:39:41;;;;;;;15.28;6.28;;;;;;;23.66;96.52;100612.86;1767964;79;21319;-59
2022/10/01 11:42:47;;;;;;;12.33;6.15;;;;;;;23.66;96.31;100611.47;1743031;81;21220;-59
2022/10/01 11:45:58;;;;;;;8.23;5.75;;;;;;;23.67;96.19;100611.75;1776991;80;21255;-58
2022/10/01 11:49:07;;;;;;;8.45;5.58;;;;;;;23.73;96.26;100612.98;1741073;81;21291;-58
2022/10/01 11:52:41;;;;;;;9.60;6.17;;;;;;;23.78;96.09;100620.05;1774494;81;21311;-59
2022/10/01 11:59:35;;;;;;;8.28;5.70;;;;;;;23.86;95.94;100604.78;1720102;79;21324;-58
2022/10/01 12:03:02;;;;;;;10.93;5.87;;;;;;;23.98;95.89;100613.39;1732725;81;21243;-59
2022/10/01 12:06:13;;;;;;;8.53;5.58;;;;;;;24.03;95.68;100614.01;1744863;81;21202;-58
2022/10/01 12:09:50;;;;;;;8.63;4.90;;;;;;;24.00;95.40;100593.00;1745405;81;21788;-59
2022/10/01 12:13:11;;;;;;;8.73;5.30;;;;;;;24.01;95.23;100599.42;1748990;78;21545;-59
2022/10/01 12:16:54;;;;;;;6.85;5.15;;;;;;;23.99;95.05;100596.88;1798833;79;21184;-59
2022/10/01 12:20:03;;;;;;;7.47;5.35;;;;;;;24.02;95.08;100604.79;1767108;80;21256;-56
2022/10/01 12:23:11;;;;;;;8.68;5.10;;;;;;;24.11;95.14;100608.82;1769799;79;21992;-57
2022/10/01 12:26:48;;;;;;;6.05;4.67;;;;;;;24.12;94.92;100603.51;1767601;80;21304;-57
2022/10/01 12:30:24;;;;;;;8.20;4.62;;;;;;;24.12;94.67;100599.31;1695725;84;21307;-57
2022/10/01 12:33:41;;;;;;;8.28;4.70;;;;;;;24.07;94.38;100602.03;1698697;80;21220;-58
2022/10/01 12:37:12;;;;;;;8.65;4.42;;;;;;;23.98;94.13;100602.73;1748002;81;21236;-57
2022/10/01 12:40:54;;;;;;;12.10;4.92;;;;;;;23.92;93.98;100602.34;1763055;80;21213;-56
2022/10/01 12:44:48;;;;;;;6.17;3.70;;;;;;;23.87;93.85;100596.13;1765921;80;21225;-57
2022/10/01 12:48:21;;;;;;;7.28;3.58;;;;;;;23.81;93.65;100592.97;1764943;81;21343;-57
2022/10/01 12:51:51;;;;;;;6.78;3.75;;;;;;;23.75;93.52;100602.93;1767524;80;21202;-58
2022/10/01 12:55:11;;;;;;;5.90;3.98;;;;;;;23.71;93.40;100601.20;1753034;80;21660;-57
2022/10/01 12:58:35;;;;;;;8.65;4.03;;;;;;;23.67;93.37;100590.25;1765612;81;21449;-57
2022/10/01 13:01:52;;;;;;;8.80;4.10;;;;;;;23.67;93.37;100588.84;1761925;80;21225;-58
2022/10/01 13:05:23;;;;;;;6.47;3.75;;;;;;;23.67;93.30;100590.25;1765775;81;21208;-57
2022/10/01 13:08:50;;;;;;;6.87;4.35;;;;;;;23.64;93.16;100585.99;1764916;79;21173;-57
2022/10/01 13:12:31;;;;;;;6.28;3.42;;;;;;;23.64;93.03;100592.16;1725472;82;21169;-57
2022/10/01 13:15:43;;;;;;;4.37;2.50;;;;;;;23.62;92.70;100590.16;1748477;80;22113;-58
2022/10/01 13:19:15;;;;;;;5.05;2.47;;;;;;;23.53;92.32;100593.92;1758103;79;21582;-57
2022/10/01 13:22:35;;;;;;;3.92;2.77;;;;;;;23.46;91.99;100591.02;1737792;81;21736;-57
2022/10/01 13:25:46;;;;;;;2.55;1.87;;;;;;;23.37;91.72;100589.19;1739883;80;21734;-57
2022/10/01 13:29:32;;;;;;;4.35;1.90;;;;;;;23.29;91.39;100592.40;1736334;81;21261;-58
2022/10/01 13:33:01;;;;;;;5.12;1.90;;;;;;;23.19;91.11;100587.16;1764316;80;21173;-58
2022/10/01 13:36:12;;;;;;;2.20;1.57;;;;;;;23.08;90.73;100595.07;1780210;80;21181;-56
2022/10/01 13:39:24;;;;;;;3.60;2.00;;;;;;;22.95;90.50;100596.78;1809669;78;21755;-57
2022/10/01 13:42:45;;;;;;;4.25;2.37;;;;;;;22.84;90.39;100586.52;1779585;79;21762;-57
2022/10/01 13:45:55;;;;;;;7.22;4.40;;;;;;;22.76;90.30;100586.39;1767429;79;21205;-58
2022/10/01 13:49:01;;;;;;;6.42;3.35;;;;;;;22.68;90.13;100578.95;1712427;83;21236;-58
2022/10/01 13:52:07;;;;;;;7.70;4.17;;;;;;;22.59;90.00;100584.11;1742149;82;21601;-57
2022/10/01 13:55:31;;;;;;;13.45;8.03;;;;;;;22.53;89.92;100580.06;1767912;79;21745;-58
2022/10/01 13:58:44;;;;;;;16.25;6.05;;;;;;;22.46;89.81;100577.92;1726023;82;21695;-58
2022/10/01 14:01:52;;;;;;;12.20;5.78;;;;;;;22.43;89.80;100570.05;1735250;82;21232;-57
2022/10/01 14:05:03;;;;;;;11.97;6.50;;;;;;;22.40;89.71;100570.55;1735055;81;21324;-57
2022/10/01 14:08:24;;;;;;;12.58;6.58;;;;;;;22.36;89.69;100569.37;1775894;79;21216;-57
2022/10/01 14:18:31;;;;;;;8.15;4.75;;;;;;;22.32;89.52;100579.31;1764847;80;21181;-58
2022/10/01 14:21:50;;;;;;;8.33;5.58;;;;;;;22.27;89.46;100566.11;1767480;80;21520;-57
2022/10/01 14:25:19;;;;;;;8.75;6.25;;;;;;;22.21;89.27;100570.72;1763861;80;21359;-58
2022/10/01 14:28:46;;;;;;;14.47;8.23;;;;;;;22.11;89.14;100580.28;1766410;80;21244;-58
2022/10/01 14:32:09;;;;;;;16.75;9.88;;;;;;;22.02;89.02;100578.12;1786962;79;21208;-58
2022/10/01 14:35:23;;;;;;;14.87;9.08;;;;;;;21.92;88.93;100571.78;1738191;81;21759;-57
2022/10/01 14:38:28;;;;;;;12.23;6.65;;;;;;;21.83;88.79;100569.61;1738601;81;21768;-56
2022/10/01 14:41:34;;;;;;;9.75;6.83;;;;;;;21.74;88.70;100574.67;1738499;82;21237;-58
2022/10/01 14:44:51;;;;;;;12.37;6.87;;;;;;;21.65;88.60;100570.56;1738822;81;21280;-58
2022/10/01 14:48:10;;;;;;;9.70;6.87;;;;;;;21.55;88.35;100562.52;1689706;84;21607;-58
2022/10/01 14:51:36;;;;;;;11.25;6.50;;;;;;;21.40;87.99;100560.75;1762082;80;21177;-56
2022/10/01 14:54:48;;;;;;;9.08;6.42;;;;;;;21.21;87.62;100551.67;1768913;80;21844;-58
2022/10/01 14:57:56;;;;;;;;;;;;;;;21.04;87.31;100565.97;1770923;81;21229;-57
2022/10/01 15:01:07;;;;;;;12.00;6.08;;;;;;;20.87;87.15;100559.37;1769553;80;20747;-58
2022/10/01 15:04:23;;;;;;;11.18;6.20;;;;;;;20.72;87.11;100552.02;1769586;80;21225;-60
2022/10/01 15:07:29;;;;;;;12.47;6.30;;;;;;;20.60;87.15;100551.12;1779830;80;21813;-60
2022/10/01 15:10:34;;;;;;;14.15;5.85;;;;;;;20.49;87.21;100545.83;1767429;80;21217;-60
2022/10/01 15:13:42;;;;;;;8.90;5.55;;;;;;;20.38;87.28;100540.22;1756713;81;21176;-59
2022/10/01 15:16:48;;;;;;;10.53;5.62;;;;;;;20.29;87.30;100547.20;1741355;79;21615;-60
2022/10/01 15:19:54;;;;;;;16.48;5.25;;;;;;;20.18;87.24;100540.51;1720677;82;21185;-60
2022/10/01 15:23:00;;;;;;;13.38;6.25;;;;;;;20.08;87.16;100533.75;1709490;82;21209;-59
2022/10/01 15:26:09;;;;;;;14.55;6.92;;;;;;;19.97;87.17;100534.02;1721327;82;21250;-60
2022/10/01 15:29:19;;;;;;;28.73;8.50;;;;;;;19.87;87.13;100527.31;1776507;78;21209;-60
2022/10/01 15:32:27;;;;;;;18.10;9.23;;;;;;;19.77;87.06;100524.22;1783089;79;21713;-61
2022/10/01 15:35:34;;;;;;;16.62;8.05;;;;;;;19.66;87.09;100521.69;1799582;78;21227;-59
2022/10/01 15:38:40;;;;;;;15.93;7.60;;;;;;;19.57;87.14;100506.95;1735400;81;21789;-58
2022/10/01 15:41:48;;;;;;;24.25;8.18;;;;;;;19.46;86.97;100513.23;1767462;80;21185;-58
2022/10/01 15:44:55;;;;;;;21.17;8.75;;;;;;;19.34;86.83;100515.39;1775652;79;21803;-58
2022/10/01 15:48:01;;;;;;;17.55;8.08;;;;;;;19.20;86.76;100519.34;1733434;82;21252;-58
2022/10/01 15:51:10;;;;;;;25.90;17.67;;;;;;;19.10;86.71;100509.85;1701180;83;21713;-58
2022/10/01 15:54:19;;;;;;;23.47;11.55;;;;;;;18.96;86.67;100516.04;1734500;81;21289;-57
2022/10/01 15:57:32;;;;;;;26.87;11.48;;;;;;;18.84;86.53;100519.78;1809434;79;21192;-58
2022/10/01 16:00:38;;;;;;;14.80;10.93;;;;;;;18.69;86.37;100528.45;1770738;79;21229;-59
2022/10/01 16:03:41;;;;;;;21.45;10.95;;;;;;;18.55;86.33;100517.12;1765868;80;21209;-59
2022/10/01 16:06:52;;;;;;;18.82;11.75;;;;;;;18.43;86.41;100509.75;1744218;79;21201;-57
2022/10/01 16:10:05;;;;;;;19.90;11.57;;;;;;;18.34;86.52;100507.77;1765536;79;21197;-58
2022/10/01 16:13:38;;;;;;;20.45;11.70;;;;;;;18.24;86.59;100506.53;1774077;79;21224;-58
2022/10/01 16:16:44;;;;;;;32.95;24.23;;;;;;;18.15;86.75;100510.12;1738490;79;21208;-58
2022/10/01 16:19:59;;;;;;;17.73;10.98;;;;;;;18.09;86.94;100512.39;1727585;82;21216;-58
2022/10/01 16:23:51;;;;;;;18.07;11.78;;;;;;;18.06;87.08;100510.04;1707560;83;21249;-58
2022/10/01 16:26:55;;;;;;;17.87;11.38;;;;;;;18.01;87.24;100514.03;1727837;81;21705;-58
2022/10/01 16:30:15;;;;;;;28.30;18.23;;;;;;;17.95;87.27;100510.73;1732349;80;21194;-58
2022/10/01 16:33:22;;;;;;;21.40;15.45;;;;;;;17.90;87.28;100506.42;1748601;81;21185;-58
2022/10/01 16:36:27;;;;;;;27.80;17.07;;;;;;;17.85;87.26;100500.69;1738149;81;21768;-57
2022/10/01 16:39:35;;;;;;;24.77;16.93;;;;;;;17.78;87.22;100495.69;1755349;80;21201;-58
2022/10/01 16:42:43;;;;;;;28.42;16.42;;;;;;;17.70;87.07;100493.17;1748572;81;21169;-57
2022/10/01 16:45:49;;;;;;;31.40;16.37;;;;;;;17.62;86.93;100482.34;1710907;83;21264;-57
2022/10/01 16:48:56;;;;;;;29.90;18.73;;;;;;;17.53;86.87;100477.59;1733440;81;21323;-56
2022/10/01 16:52:01;;;;;;;37.98;21.68;;;;;;;17.43;86.83;100481.31;1733887;81;21188;-56
2022/10/01 16:55:08;;;;;;;37.88;20.48;;;;;;;17.35;86.79;100471.00;1740888;81;22268;-56
2022/10/01 16:58:14;;;;;;;30.50;19.62;;;;;;;17.27;86.75;100474.00;1746426;79;21268;-56
2022/10/01 17:01:22;;;;;;;34.90;23.52;;;;;;;17.19;86.69;100467.31;1743580;81;21173;-57
2022/10/01 17:04:32;;;;;;;41.50;26.20;;;;;;;17.10;86.63;100460.33;1751187;80;21264;-58
2022/10/01 17:07:38;;;;;;;44.98;26.33;;;;;;;17.02;86.60;100453.64;1745048;81;21197;-57
2022/10/01 17:10:58;;;;;;;44.93;26.70;;;;;;;16.94;86.64;100452.48;1741006;81;21162;-56